createdAt,value
2023-02-14T00:37:19.186Z,25.94
2023-02-14T00:38:19.138Z,25.96
2023-02-14T00:39:19.090Z,25.93
2023-02-14T00:40:19.046Z,25.91
2023-02-14T00:41:19.030Z,25.93
2023-02-14T00:42:18.941Z,25.91
2023-02-14T00:43:18.904Z,25.90
2023-02-14T00:44:18.864Z,25.90
2023-02-14T00:45:18.787Z,25.90
2023-02-14T00:46:18.756Z,25.93
2023-02-14T00:47:18.726Z,25.90
2023-02-14T00:48:18.648Z,25.90
2023-02-14T00:49:18.643Z,25.90
2023-02-14T00:50:18.572Z,25.88
2023-02-14T00:51:18.517Z,25.88
2023-02-14T00:52:18.504Z,25.91
2023-02-14T00:53:18.416Z,25.93
2023-02-14T00:54:18.353Z,25.90
2023-02-14T00:55:18.306Z,25.90
2023-02-14T00:56:18.274Z,25.91
2023-02-14T00:57:18.237Z,25.90
2023-02-14T00:58:18.177Z,25.90
2023-02-14T00:59:18.132Z,25.88
2023-02-14T01:00:18.101Z,25.88
2023-02-14T01:01:18.060Z,25.88
2023-02-14T01:02:18.012Z,25.88
2023-02-14T01:03:17.944Z,25.87
2023-02-14T01:04:17.855Z,25.88
2023-02-14T01:05:17.818Z,25.86
2023-02-14T01:06:17.756Z,25.90
2023-02-14T01:07:17.721Z,25.93
2023-02-14T01:08:17.770Z,25.88
2023-02-14T01:09:17.649Z,25.87
2023-02-14T01:10:17.572Z,25.88
2023-02-14T01:11:17.560Z,25.86
2023-02-14T01:12:17.457Z,25.87
2023-02-14T01:13:17.476Z,25.88
2023-02-14T01:14:17.374Z,25.88
2023-02-14T01:15:17.363Z,25.86
2023-02-14T01:16:17.311Z,25.84
2023-02-14T01:17:17.282Z,25.86
2023-02-14T01:18:17.216Z,25.86
2023-02-14T01:19:17.120Z,25.86
2023-02-14T01:20:17.097Z,25.83
2023-02-14T01:21:17.066Z,25.84
2023-02-14T01:22:17.018Z,25.83
2023-02-14T01:23:16.937Z,25.83
2023-02-14T01:24:16.911Z,25.83
2023-02-14T01:25:16.888Z,25.84
2023-02-14T01:26:16.858Z,25.86
2023-02-14T01:27:16.799Z,25.81
2023-02-14T01:28:16.744Z,25.83
2023-02-14T01:29:16.687Z,25.86
2023-02-14T01:30:16.731Z,25.87
2023-02-14T01:31:16.712Z,25.88
2023-02-14T01:32:16.586Z,25.90
2023-02-14T01:33:16.497Z,25.88
2023-02-14T01:34:16.425Z,25.84
2023-02-14T01:35:16.396Z,25.84
2023-02-14T01:36:16.319Z,25.87
2023-02-14T01:37:16.291Z,25.84
2023-02-14T01:38:16.293Z,25.83
2023-02-14T01:39:16.213Z,25.84
2023-02-14T01:40:16.154Z,25.87
2023-02-14T01:41:16.105Z,25.83
2023-02-14T01:42:16.155Z,25.84
2023-02-14T01:43:16.017Z,25.84
2023-02-14T01:44:15.961Z,25.81
2023-02-14T01:45:15.918Z,25.81
2023-02-14T01:46:15.936Z,25.80
2023-02-14T01:47:15.849Z,25.81
2023-02-14T01:48:15.772Z,25.84
2023-02-14T01:49:15.768Z,25.81
2023-02-14T01:50:15.680Z,25.81
2023-02-14T01:51:15.649Z,25.84
2023-02-14T01:52:15.590Z,25.84
2023-02-14T01:53:15.560Z,25.81
2023-02-14T01:54:15.517Z,25.79
2023-02-14T01:55:15.491Z,25.79
2023-02-14T01:56:15.430Z,25.84
2023-02-14T01:57:15.363Z,25.77
2023-02-14T01:58:15.344Z,25.83
2023-02-14T01:59:15.311Z,25.77
2023-02-14T02:00:15.220Z,25.80
2023-02-14T02:01:15.179Z,25.81
2023-02-14T02:02:15.141Z,25.80
2023-02-14T02:03:15.080Z,25.77
2023-02-14T02:04:15.025Z,25.81
2023-02-14T02:05:14.962Z,25.81
2023-02-14T02:06:14.935Z,25.80
2023-02-14T02:07:14.899Z,25.81
2023-02-14T02:08:14.842Z,25.81
2023-02-14T02:09:14.813Z,25.80
2023-02-14T02:10:14.759Z,25.76
2023-02-14T02:11:14.670Z,25.79
2023-02-14T02:12:14.620Z,25.80
2023-02-14T02:13:14.576Z,25.79
2023-02-14T02:14:14.592Z,25.77
2023-02-14T02:15:14.483Z,25.77
2023-02-14T02:16:14.440Z,25.77
2023-02-14T02:17:14.386Z,25.79
2023-02-14T02:18:14.338Z,25.75
2023-02-14T02:19:14.252Z,25.73
2023-02-14T02:20:14.204Z,25.76
2023-02-14T02:21:14.158Z,25.76
2023-02-14T02:22:14.111Z,25.80
2023-02-14T02:23:14.078Z,25.76
2023-02-14T02:24:13.992Z,25.75
2023-02-14T02:25:13.961Z,25.72
2023-02-14T02:49:12.795Z,25.53
2023-02-14T02:50:12.698Z,25.52
2023-02-14T02:51:12.657Z,25.52
2023-02-14T02:52:12.578Z,25.52
2023-02-14T02:53:12.520Z,25.46
2023-02-14T02:54:12.473Z,25.43
2023-02-14T02:55:12.427Z,25.32
2023-02-14T02:56:12.352Z,25.41
2023-02-14T02:57:12.290Z,25.42
2023-02-14T02:58:12.223Z,25.38
2023-02-14T02:59:12.202Z,25.41
2023-02-14T03:00:12.135Z,25.31
2023-02-14T03:01:12.112Z,25.33
2023-02-14T03:02:12.012Z,25.42
2023-02-14T03:03:12.072Z,25.29
2023-02-14T03:04:11.927Z,25.41
2023-02-14T03:05:11.924Z,25.31
2023-02-14T03:07:11.753Z,25.31
2023-02-14T03:08:11.708Z,25.33
2023-02-14T03:09:11.663Z,25.31
2023-02-14T03:10:11.589Z,25.29
2023-02-14T03:11:11.555Z,25.31
2023-02-14T03:12:11.495Z,25.28
2023-02-14T03:13:11.442Z,25.38
2023-02-14T03:14:11.428Z,25.32
2023-02-14T03:15:11.322Z,25.29
2023-02-14T03:16:11.325Z,25.32
2023-02-14T03:17:11.248Z,25.25
2023-02-14T03:18:11.166Z,25.29
2023-02-14T03:19:11.152Z,25.26
2023-02-14T03:20:11.075Z,25.24
2023-02-14T03:21:11.021Z,25.26
2023-02-14T03:22:10.980Z,25.25
2023-02-14T03:23:10.974Z,25.21
2023-02-14T03:24:10.873Z,25.26
2023-02-14T03:25:10.830Z,25.24
2023-02-14T03:26:10.779Z,25.25
2023-02-14T03:27:10.737Z,25.24
2023-02-14T03:28:10.686Z,25.14
2023-02-14T03:29:10.652Z,25.14
2023-02-14T03:30:10.603Z,25.24
2023-02-14T03:31:10.594Z,25.17
2023-02-14T03:32:10.726Z,25.17
2023-02-14T03:33:10.437Z,25.18
2023-02-14T03:34:10.409Z,25.10
2023-02-14T03:35:10.375Z,25.19
2023-02-14T03:36:10.292Z,25.22
2023-02-14T03:37:10.230Z,25.19
2023-02-14T03:38:10.193Z,25.15
2023-02-14T03:39:10.145Z,25.19
2023-02-14T03:40:10.116Z,25.15
2023-02-14T03:41:10.049Z,25.15
2023-02-14T03:42:10.025Z,25.15
2023-02-14T03:43:09.993Z,25.22
2023-02-14T03:44:09.896Z,25.19
2023-02-14T03:45:09.926Z,25.17
2023-02-14T03:46:09.835Z,25.10
2023-02-14T03:47:09.785Z,25.13
2023-02-14T03:48:09.709Z,25.18
2023-02-14T03:49:09.684Z,25.17
2023-02-14T03:50:09.635Z,25.10
2023-02-14T03:51:09.573Z,25.04
2023-02-14T03:52:09.514Z,24.99
2023-02-14T03:53:09.488Z,25.11
2023-02-14T03:54:09.420Z,25.08
2023-02-14T03:55:09.385Z,25.11
2023-02-14T03:56:09.325Z,25.17
2023-02-14T03:57:09.293Z,25.03
2023-02-14T03:58:09.242Z,25.08
2023-02-14T03:59:09.167Z,25.04
2023-02-14T04:00:09.145Z,25.05
2023-02-14T04:01:09.057Z,25.10
2023-02-14T04:02:09.022Z,24.95
2023-02-14T04:03:09.012Z,25.03
2023-02-14T04:04:08.910Z,25.08
2023-02-14T04:05:08.873Z,24.97
2023-02-14T04:06:08.840Z,25.03
2023-02-14T04:07:08.753Z,25.08
2023-02-14T04:08:08.713Z,25.03
2023-02-14T04:09:08.660Z,25.08
2023-02-14T04:10:08.605Z,25.10
2023-02-14T04:11:08.566Z,25.13
2023-02-14T04:12:08.513Z,25.11
2023-02-14T04:13:08.468Z,25.10
2023-02-14T04:14:08.430Z,25.05
2023-02-14T04:15:08.396Z,25.07
2023-02-14T04:16:08.349Z,25.08
2023-02-14T04:17:08.285Z,25.05
2023-02-14T04:18:08.208Z,25.08
2023-02-14T04:19:08.188Z,25.07
2023-02-14T04:20:08.148Z,25.03
2023-02-14T04:21:08.116Z,25.04
2023-02-14T04:22:08.022Z,25.07
2023-02-14T04:23:07.995Z,25.05
2023-02-14T04:24:07.923Z,25.07
2023-02-14T04:25:07.938Z,25.08
2023-02-14T04:26:07.842Z,25.04
2023-02-14T04:27:07.801Z,25.07
2023-02-14T04:28:07.765Z,24.93
2023-02-14T04:29:07.695Z,25.03
2023-02-14T04:30:07.794Z,25.03
2023-02-14T04:31:07.703Z,24.91
2023-02-14T04:32:07.628Z,24.94
2023-02-14T04:33:07.517Z,24.98
2023-02-14T04:34:07.474Z,24.99
2023-02-14T04:35:07.438Z,24.99
2023-02-14T04:36:07.363Z,25.03
2023-02-14T04:37:07.326Z,24.98
2023-02-14T04:38:07.292Z,24.99
2023-02-14T04:39:07.213Z,25.03
2023-02-14T04:40:08.152Z,24.97
2023-02-14T04:41:07.119Z,24.99
2023-02-14T04:42:07.091Z,25.04
2023-02-14T04:43:07.048Z,24.88
2023-02-14T04:44:06.994Z,24.94
2023-02-14T04:45:06.919Z,24.99
2023-02-14T04:46:06.964Z,24.99
2023-02-14T04:47:06.847Z,25.03
2023-02-14T04:48:06.839Z,24.97
2023-02-14T04:49:06.755Z,24.87
2023-02-14T04:50:06.694Z,24.94
2023-02-14T04:51:06.672Z,25.01
2023-02-14T04:52:06.603Z,25.01
2023-02-14T04:53:06.559Z,25.03
2023-02-14T04:54:06.506Z,25.01
2023-02-14T04:55:06.509Z,24.87
2023-02-14T04:56:06.423Z,24.97
2023-02-14T04:57:06.373Z,24.97
2023-02-14T04:58:06.311Z,24.98
2023-02-14T04:59:06.272Z,24.97
2023-02-14T05:00:06.225Z,24.94
2023-02-14T05:01:06.304Z,24.90
2023-02-14T05:02:06.186Z,24.94
2023-02-14T05:03:06.066Z,24.90
2023-02-14T05:04:06.025Z,24.93
2023-02-14T05:05:05.997Z,24.95
2023-02-14T05:06:05.924Z,24.90
2023-02-14T05:07:05.874Z,24.84
2023-02-14T05:08:05.814Z,24.83
2023-02-14T05:09:05.773Z,24.88
2023-02-14T05:10:05.727Z,24.91
2023-02-14T05:11:05.662Z,24.95
2023-02-14T05:12:05.613Z,24.84
2023-02-14T05:13:05.572Z,24.84
2023-02-14T05:14:05.523Z,24.90
2023-02-14T05:15:05.432Z,24.90
2023-02-14T05:16:05.463Z,24.88
2023-02-14T05:17:05.347Z,24.90
2023-02-14T05:18:05.323Z,24.88
2023-02-14T05:19:05.253Z,24.88
2023-02-14T05:20:05.196Z,24.86
2023-02-14T05:21:05.163Z,24.91
2023-02-14T05:22:05.099Z,24.90
2023-02-14T05:23:05.028Z,24.79
2023-02-14T05:24:04.977Z,24.80
2023-02-14T05:25:04.947Z,24.80
2023-02-14T05:26:04.858Z,24.77
2023-02-14T05:27:04.804Z,24.81
2023-02-14T05:28:04.803Z,24.81
2023-02-14T05:29:04.693Z,24.84
2023-02-14T05:30:04.687Z,24.71
2023-02-14T05:31:04.807Z,24.74
2023-02-14T05:32:04.539Z,24.86
2023-02-14T05:33:04.468Z,24.84
2023-02-14T05:34:04.417Z,24.79
2023-02-14T05:35:04.362Z,24.71
2023-02-14T05:36:04.333Z,24.71
2023-02-14T05:37:04.229Z,24.76
2023-02-14T05:38:04.202Z,24.80
2023-02-14T05:39:04.154Z,24.84
2023-02-14T05:40:04.085Z,24.84
2023-02-14T05:41:04.065Z,24.83
2023-02-14T05:42:03.975Z,24.87
2023-02-14T05:43:03.931Z,24.84
2023-02-14T05:44:03.910Z,24.86
2023-02-14T05:45:03.878Z,24.88
2023-02-14T05:46:03.829Z,24.80
2023-02-14T05:47:03.765Z,24.74
2023-02-14T05:48:03.653Z,24.81
2023-02-14T05:49:03.607Z,24.86
2023-02-14T05:50:03.567Z,24.88
2023-02-14T05:51:03.517Z,24.91
2023-02-14T05:52:03.478Z,24.80
2023-02-14T05:53:03.412Z,24.73
2023-02-14T05:54:03.397Z,24.80
2023-02-14T05:55:03.285Z,24.80
2023-02-14T05:56:03.253Z,24.79
2023-02-14T05:57:03.199Z,24.86
2023-02-14T05:58:03.152Z,24.81
2023-02-14T05:59:03.085Z,24.77
2023-02-14T06:00:03.039Z,24.71
2023-02-14T06:01:03.128Z,24.76
2023-02-14T06:02:02.991Z,24.83
2023-02-14T06:03:02.873Z,24.81
2023-02-14T06:04:02.977Z,24.73
2023-02-14T06:05:02.757Z,24.73
2023-02-14T06:06:02.704Z,24.74
2023-02-14T06:07:02.673Z,24.83
2023-02-14T06:08:02.608Z,24.86
2023-02-14T06:09:02.586Z,24.86
2023-02-14T06:10:02.498Z,24.81
2023-02-14T06:11:02.649Z,24.74
2023-02-14T06:12:02.411Z,24.79
2023-02-14T06:13:02.357Z,24.81
2023-02-14T06:14:02.287Z,24.84
2023-02-14T06:15:02.236Z,24.84
2023-02-14T06:16:02.149Z,24.77
2023-02-14T06:17:02.271Z,24.73
2023-02-14T06:18:02.058Z,24.76
2023-02-14T06:19:02.120Z,24.83
2023-02-14T06:20:02.018Z,24.84
2023-02-14T06:21:02.288Z,24.76
2023-02-14T06:22:01.901Z,24.67
2023-02-14T06:23:01.841Z,24.64
2023-02-14T06:24:01.767Z,24.66
2023-02-14T06:25:01.702Z,24.71
2023-02-14T06:26:01.673Z,24.73
2023-02-14T06:27:01.629Z,24.73
2023-02-14T06:28:01.580Z,24.67
2023-02-14T06:29:01.504Z,24.67
2023-02-14T06:30:01.531Z,24.71
2023-02-14T06:31:01.836Z,24.70
2023-02-14T06:32:01.508Z,24.76
2023-02-14T06:33:01.336Z,24.66
2023-02-14T06:34:01.269Z,24.64
2023-02-14T06:35:01.230Z,24.71
2023-02-14T06:36:01.199Z,24.79
2023-02-14T06:37:01.166Z,24.79
2023-02-14T06:38:01.069Z,24.76
2023-02-14T06:45:01.192Z,24.67
2023-02-14T07:14:59.209Z,24.64
2023-02-14T07:17:58.998Z,24.70
2023-02-14T07:19:58.925Z,24.69
2023-02-14T07:20:59.133Z,24.59
2023-02-14T07:22:58.738Z,24.70
2023-02-14T07:24:58.658Z,24.73
2023-02-14T07:25:58.573Z,24.64
2023-02-14T07:26:58.569Z,24.64
2023-02-14T07:27:58.527Z,24.58
2023-02-14T07:28:58.501Z,24.73
2023-02-14T07:29:58.424Z,24.79
2023-02-14T07:30:58.836Z,24.73
2023-02-14T07:31:58.463Z,24.63
2023-02-14T07:32:58.241Z,24.69
2023-02-14T07:33:58.217Z,24.62
2023-02-14T07:34:58.134Z,24.60
2023-02-14T07:35:58.075Z,24.69
2023-02-14T07:36:58.127Z,24.74
2023-02-14T07:37:57.960Z,24.62
2023-02-14T07:38:57.955Z,24.60
2023-02-14T07:39:57.864Z,24.63
2023-02-14T07:40:58.112Z,24.76
2023-02-14T07:41:57.780Z,24.80
2023-02-14T07:42:57.722Z,24.79
2023-02-14T07:43:57.670Z,24.74
2023-02-14T07:44:57.598Z,24.70
2023-02-14T07:45:57.608Z,24.64
2023-02-14T07:46:57.541Z,24.64
2023-02-14T07:47:57.753Z,24.74
2023-02-14T07:48:57.472Z,24.76
2023-02-14T07:49:57.446Z,24.71
2023-02-14T07:50:57.333Z,24.67
2023-02-14T07:51:57.303Z,24.62
2023-02-14T07:52:57.226Z,24.67
2023-02-14T07:53:57.196Z,24.73
2023-02-14T07:54:57.110Z,24.79
2023-02-14T07:55:57.090Z,24.77
2023-02-14T07:56:57.028Z,24.69
2023-02-14T07:57:56.994Z,24.76
2023-02-14T07:58:56.940Z,24.76
2023-02-14T07:59:56.899Z,24.79
2023-02-14T08:00:56.976Z,24.80
2023-02-14T08:01:56.812Z,24.76
2023-02-14T08:02:56.764Z,24.69
2023-02-14T08:03:56.686Z,24.63
2023-02-14T08:04:56.694Z,24.73
2023-02-14T08:05:56.631Z,24.79
2023-02-14T08:06:56.617Z,24.73
2023-02-14T08:07:56.641Z,24.76
2023-02-14T08:08:56.447Z,24.73
2023-02-14T08:09:56.453Z,24.73
2023-02-14T08:10:56.408Z,24.69
2023-02-14T08:11:56.318Z,24.73
2023-02-14T08:12:56.294Z,24.66
2023-02-14T08:13:56.281Z,24.59
2023-02-14T08:14:56.268Z,24.70
2023-02-14T08:15:56.150Z,24.77
2023-02-14T08:16:56.066Z,24.73
2023-02-14T08:17:55.995Z,24.70
2023-02-14T08:18:56.067Z,24.74
2023-02-14T08:19:56.012Z,24.81
2023-02-14T08:20:55.931Z,24.73
2023-02-14T08:21:55.823Z,24.80
2023-02-14T08:22:55.779Z,24.71
2023-02-14T08:23:55.755Z,24.79
2023-02-14T08:24:55.693Z,24.83
2023-02-14T08:25:55.667Z,24.91
2023-02-14T08:26:55.613Z,24.90
2023-02-14T08:27:55.564Z,24.99
2023-02-14T08:28:55.488Z,24.97
2023-02-14T08:29:55.482Z,25.04
2023-02-14T08:30:55.433Z,25.10
2023-02-14T08:31:55.450Z,25.17
2023-02-14T08:32:55.336Z,25.18
2023-02-14T08:33:55.262Z,25.19
2023-02-14T08:34:55.264Z,25.21
2023-02-14T08:35:55.156Z,25.22
2023-02-14T08:36:55.135Z,25.28
2023-02-14T08:37:55.021Z,25.33
2023-02-14T08:38:54.998Z,25.35
2023-02-14T08:39:54.929Z,25.36
2023-02-14T08:40:54.909Z,25.41
2023-02-14T08:41:54.847Z,25.46
2023-02-14T08:42:54.768Z,25.48
2023-02-14T08:43:54.797Z,25.56
2023-02-14T08:44:54.666Z,25.60
2023-02-14T08:45:54.665Z,25.62
2023-02-14T08:46:54.550Z,25.70
2023-02-14T08:47:54.468Z,25.72
2023-02-14T08:48:54.435Z,25.73
2023-02-14T08:49:54.344Z,25.75
2023-02-14T08:50:54.355Z,25.77
2023-02-14T08:51:54.255Z,25.84
2023-02-14T08:52:54.210Z,25.87
2023-02-14T08:53:54.132Z,25.90
2023-02-14T08:54:54.065Z,25.90
2023-02-14T08:55:54.009Z,25.93
2023-02-14T08:56:53.922Z,25.98
2023-02-14T08:57:53.894Z,26.03
2023-02-14T08:58:53.795Z,26.04
2023-02-14T08:59:53.737Z,26.07
2023-02-14T09:00:53.724Z,26.13
2023-02-14T09:01:53.625Z,26.11
2023-02-14T09:02:53.565Z,26.15
2023-02-14T09:03:53.668Z,26.15
2023-02-14T09:04:54.269Z,26.18
2023-02-14T09:05:53.770Z,26.21
2023-02-14T09:06:53.258Z,26.24
2023-02-14T09:07:53.195Z,26.27
2023-02-14T09:08:53.153Z,26.24
2023-02-14T09:09:53.031Z,26.31
2023-02-14T09:10:53.067Z,26.32
2023-02-14T09:11:52.916Z,26.35
2023-02-14T09:12:52.860Z,26.38
2023-02-14T09:13:52.734Z,26.41
2023-02-14T09:14:52.708Z,26.42
2023-02-14T09:15:52.617Z,26.45
2023-02-14T09:16:52.647Z,26.46
2023-02-14T09:17:52.511Z,26.49
2023-02-14T09:18:52.428Z,26.48
2023-02-14T09:19:52.345Z,26.48
2023-02-14T09:20:52.289Z,26.53
2023-02-14T09:21:52.240Z,26.59
2023-02-14T09:22:52.118Z,26.58
2023-02-14T09:23:52.047Z,26.62
2023-02-14T09:24:51.980Z,26.63
2023-02-14T09:25:51.891Z,26.69
2023-02-14T09:26:51.813Z,26.73
2023-02-14T09:27:51.760Z,26.72
2023-02-14T09:28:51.665Z,26.76
2023-02-14T09:29:51.641Z,26.77
2023-02-14T09:30:54.311Z,26.79
2023-02-14T09:31:51.528Z,26.82
2023-02-14T09:32:51.359Z,26.86
2023-02-14T09:33:51.324Z,26.90
2023-02-14T09:34:51.226Z,26.90
2023-02-14T09:35:51.159Z,26.94
2023-02-14T09:36:51.115Z,26.94
2023-02-14T09:37:51.000Z,26.94
2023-02-14T09:38:50.932Z,26.98
2023-02-14T09:39:50.930Z,27.00
2023-02-14T09:40:50.789Z,27.03
2023-02-14T09:41:50.756Z,27.03
2023-02-14T09:42:50.632Z,27.05
2023-02-14T09:43:50.591Z,27.05
2023-02-14T09:44:50.490Z,27.07
2023-02-14T09:45:50.449Z,27.13
2023-02-14T09:46:50.353Z,27.13
2023-02-14T09:47:50.261Z,27.18
2023-02-14T09:48:50.188Z,27.22
2023-02-14T09:49:50.157Z,27.22
2023-02-14T09:50:50.071Z,27.25
2023-02-14T09:51:50.036Z,27.28
2023-02-14T09:52:49.877Z,27.27
2023-02-14T09:53:49.770Z,27.31
2023-02-14T09:54:49.716Z,27.34
2023-02-14T09:55:49.637Z,27.32
2023-02-14T09:56:51.726Z,27.39
2023-02-14T09:57:49.556Z,27.38
2023-02-14T09:58:49.462Z,27.42
2023-02-14T09:59:49.407Z,27.41
2023-02-14T10:00:49.344Z,27.44
2023-02-14T10:01:49.587Z,27.44
2023-02-14T10:02:49.130Z,27.48
2023-02-14T10:03:49.056Z,27.50
2023-02-14T10:04:48.987Z,27.53
2023-02-14T10:05:48.887Z,27.50
2023-02-14T10:06:48.856Z,27.53
2023-02-14T10:07:48.737Z,27.50
2023-02-14T10:08:48.654Z,27.53
2023-02-14T10:09:48.615Z,27.58
2023-02-14T10:10:48.475Z,27.62
2023-02-14T10:11:48.545Z,27.65
2023-02-14T10:12:48.317Z,27.67
2023-02-14T10:13:48.215Z,27.70
2023-02-14T10:14:48.183Z,27.70
2023-02-14T10:15:48.072Z,27.72
2023-02-14T10:16:47.997Z,27.75
2023-02-14T10:17:47.892Z,27.77
2023-02-14T10:18:47.810Z,27.79
2023-02-14T10:19:47.727Z,27.77
2023-02-14T10:20:47.652Z,27.80
2023-02-14T10:21:48.057Z,27.82
2023-02-14T10:22:47.521Z,27.82
2023-02-14T10:23:47.416Z,27.83
2023-02-14T10:24:47.370Z,27.87
2023-02-14T10:25:47.240Z,27.92
2023-02-14T10:26:47.135Z,27.92
2023-02-14T10:27:47.110Z,27.93
2023-02-14T10:28:46.985Z,27.96
2023-02-14T10:29:46.941Z,27.97
2023-02-14T10:30:46.942Z,27.96
2023-02-14T10:31:46.815Z,28.00
2023-02-14T10:32:46.664Z,28.03
2023-02-14T10:33:46.512Z,28.04
2023-02-14T10:34:46.430Z,28.03
2023-02-14T10:35:46.332Z,28.08
2023-02-14T10:36:46.265Z,28.07
2023-02-14T10:37:46.176Z,28.08
2023-02-14T10:38:46.082Z,28.12
2023-02-14T10:39:45.987Z,28.12
2023-02-14T10:40:46.809Z,28.11
2023-02-14T10:41:45.842Z,28.15
2023-02-14T10:42:45.753Z,28.17
2023-02-14T10:43:45.668Z,28.17
2023-02-14T10:44:45.560Z,28.18
2023-02-14T10:45:45.506Z,28.18
2023-02-14T10:46:45.369Z,28.22
2023-02-14T10:47:45.319Z,28.24
2023-02-14T10:48:45.214Z,28.27
2023-02-14T10:49:45.122Z,28.25
2023-02-14T10:50:45.099Z,28.27
2023-02-14T10:51:44.942Z,28.30
2023-02-14T10:52:44.889Z,28.30
2023-02-14T10:53:44.785Z,28.32
2023-02-14T10:54:44.705Z,28.34
2023-02-14T10:55:44.619Z,28.34
2023-02-14T10:56:44.527Z,28.38
2023-02-14T10:57:44.474Z,28.37
2023-02-14T10:58:44.371Z,28.38
2023-02-14T10:59:44.274Z,28.42
2023-02-14T11:00:44.172Z,28.39
2023-02-14T11:01:44.121Z,28.41
2023-02-14T11:02:44.000Z,28.44
2023-02-14T11:03:44.332Z,28.44
2023-02-14T11:04:43.807Z,28.45
2023-02-14T11:05:46.127Z,28.47
2023-02-14T11:06:43.615Z,28.51
2023-02-14T11:07:43.506Z,28.48
2023-02-14T11:08:43.459Z,28.51
2023-02-14T11:09:43.378Z,28.54
2023-02-14T11:10:43.264Z,28.55
2023-02-14T11:11:43.188Z,28.54
2023-02-14T11:12:43.072Z,28.58
2023-02-14T11:13:42.982Z,28.58
2023-02-14T11:14:42.885Z,28.56
2023-02-14T11:15:42.784Z,28.60
2023-02-14T11:16:42.727Z,28.63
2023-02-14T11:17:42.605Z,28.63
2023-02-14T11:18:42.546Z,28.63
2023-02-14T11:19:42.455Z,28.65
2023-02-14T11:20:42.324Z,28.66
2023-02-14T11:21:42.265Z,28.69
2023-02-14T11:22:42.164Z,28.72
2023-02-14T11:23:42.075Z,28.73
2023-02-14T11:24:41.966Z,28.72
2023-02-14T11:25:41.872Z,28.73
2023-02-14T11:26:41.775Z,28.73
2023-02-14T11:27:41.687Z,28.79
2023-02-14T11:28:42.147Z,28.75
2023-02-14T11:29:41.476Z,28.76
2023-02-14T11:30:41.475Z,28.79
2023-02-14T11:31:41.411Z,28.82
2023-02-14T11:32:41.214Z,28.83
2023-02-14T11:33:41.155Z,28.84
2023-02-14T11:34:41.059Z,28.84
2023-02-14T11:35:40.918Z,28.86
2023-02-14T11:36:40.880Z,28.87
2023-02-14T11:37:40.739Z,28.90
2023-02-14T11:38:40.679Z,28.89
2023-02-14T11:39:40.582Z,28.90
2023-02-14T11:40:40.499Z,28.92
2023-02-14T11:41:40.441Z,28.92
2023-02-14T11:42:40.290Z,28.93
2023-02-14T11:43:40.212Z,28.94
2023-02-14T11:44:40.102Z,28.96
2023-02-14T11:45:40.032Z,28.99
2023-02-14T11:46:52.379Z,28.99
2023-02-14T11:47:40.839Z,28.99
2023-02-14T11:48:39.791Z,29.01
2023-02-14T11:49:39.691Z,29.01
2023-02-14T11:50:39.556Z,29.01
2023-02-14T11:51:39.493Z,29.04
2023-02-14T11:52:39.393Z,29.01
2023-02-14T11:53:39.293Z,29.06
2023-02-14T11:54:39.203Z,29.09
2023-02-14T11:55:39.229Z,29.13
2023-02-14T11:56:39.078Z,29.10
2023-02-14T11:57:38.915Z,29.13
2023-02-14T11:58:38.819Z,29.13
2023-02-14T11:59:38.713Z,29.14
2023-02-14T12:00:38.631Z,29.14
2023-02-14T12:01:38.551Z,29.16
2023-02-14T12:02:38.516Z,29.18
2023-02-14T12:03:38.407Z,29.21
2023-02-14T12:04:45.933Z,29.18
2023-02-14T12:05:39.177Z,29.20
2023-02-14T12:06:38.042Z,29.21
2023-02-14T12:07:37.954Z,29.21
2023-02-14T12:08:37.882Z,29.21
2023-02-14T12:09:37.766Z,29.21
2023-02-14T12:10:37.680Z,29.28
2023-02-14T12:11:37.605Z,29.28
2023-02-14T12:12:37.478Z,29.28
2023-02-14T12:13:37.359Z,29.29
2023-02-14T12:14:37.274Z,29.28
2023-02-14T12:15:37.579Z,29.29
2023-02-14T12:16:37.092Z,29.29
2023-02-14T12:17:36.997Z,29.32
2023-02-14T12:18:36.880Z,29.32
2023-02-14T12:19:36.795Z,29.35
2023-02-14T12:20:36.676Z,29.35
2023-02-14T12:21:36.557Z,29.37
2023-02-14T12:22:36.481Z,29.37
2023-02-14T12:23:36.351Z,29.38
2023-02-14T12:24:36.264Z,29.35
2023-02-14T12:25:36.178Z,29.39
2023-02-14T12:26:36.090Z,29.41
2023-02-14T12:27:35.967Z,29.39
2023-02-14T12:28:36.009Z,29.42
2023-02-14T12:29:35.752Z,29.42
2023-02-14T12:30:35.652Z,29.44
2023-02-14T12:31:35.630Z,29.41
2023-02-14T12:32:35.450Z,29.44
2023-02-14T12:33:35.348Z,29.45
2023-02-14T12:34:35.266Z,29.45
2023-02-14T12:35:35.172Z,29.45
2023-02-14T12:36:35.055Z,29.46
2023-02-14T12:37:34.928Z,29.49
2023-02-14T12:38:34.868Z,29.48
2023-02-14T12:39:34.751Z,29.46
2023-02-14T12:40:34.673Z,29.49
2023-02-14T12:41:34.536Z,29.48
2023-02-14T12:42:34.447Z,29.51
2023-02-14T12:43:34.338Z,29.48
2023-02-14T12:44:34.230Z,29.51
2023-02-14T12:45:34.161Z,29.55
2023-02-14T12:46:34.060Z,29.52
2023-02-14T12:47:33.918Z,29.54
2023-02-14T12:48:33.828Z,29.54
2023-02-14T12:49:33.714Z,29.52
2023-02-14T12:50:33.628Z,29.54
2023-02-14T12:51:33.532Z,29.56
2023-02-14T12:52:33.403Z,29.58
2023-02-14T12:53:33.323Z,29.55
2023-02-14T12:54:33.369Z,29.58
2023-02-14T12:55:33.137Z,29.58
2023-02-14T12:56:33.019Z,29.56
2023-02-14T12:57:32.909Z,29.59
2023-02-14T12:58:32.804Z,29.59
2023-02-14T12:59:32.726Z,29.62
2023-02-14T13:00:32.629Z,29.61
2023-02-14T13:01:38.486Z,29.62
2023-02-14T13:02:33.559Z,29.64
2023-02-14T13:03:32.324Z,29.66
2023-02-14T13:04:32.186Z,29.61
2023-02-14T13:05:32.119Z,29.64
2023-02-14T13:06:31.982Z,29.64
2023-02-14T13:07:31.888Z,29.64
2023-02-14T13:08:31.783Z,29.66
2023-02-14T13:09:31.692Z,29.65
2023-02-14T13:10:31.597Z,29.71
2023-02-14T13:11:31.477Z,29.65
2023-02-14T13:12:31.370Z,29.65
2023-02-14T13:13:31.245Z,29.68
2023-02-14T13:14:31.147Z,29.69
2023-02-14T13:15:31.070Z,29.69
2023-02-14T14:08:25.525Z,29.71
2023-02-14T14:09:25.446Z,29.71
2023-02-14T14:10:25.329Z,29.73
2023-02-14T14:11:25.228Z,29.71
2023-02-14T14:12:25.128Z,29.71
2023-02-14T14:13:24.988Z,29.72
2023-02-14T14:14:24.872Z,29.71
2023-02-14T14:15:24.799Z,29.71
2023-02-14T14:16:24.730Z,29.69
2023-02-14T14:17:24.605Z,29.72
2023-02-14T14:18:24.479Z,29.72
2023-02-14T14:19:24.388Z,29.69
2023-02-14T14:20:24.301Z,29.72
2023-02-14T14:21:24.236Z,29.71
2023-02-14T14:22:24.100Z,29.68
2023-02-14T14:23:23.947Z,29.69
2023-02-14T14:24:23.864Z,29.66
2023-02-14T14:25:23.764Z,29.68
2023-02-14T14:26:23.649Z,29.69
2023-02-14T14:27:23.554Z,29.66
2023-02-14T14:28:23.435Z,29.65
2023-02-14T14:29:23.347Z,29.68
2023-02-14T14:30:23.482Z,29.64
2023-02-14T14:31:23.217Z,29.64
2023-02-14T14:32:23.388Z,29.65
2023-02-14T14:33:22.944Z,29.62
2023-02-14T14:34:22.792Z,29.64
2023-02-14T14:35:22.688Z,29.59
2023-02-14T14:36:22.591Z,29.59
2023-02-14T14:37:22.526Z,29.59
2023-02-14T14:38:22.404Z,29.56
2023-02-14T14:39:22.313Z,29.55
2023-02-14T14:40:22.148Z,29.54
2023-02-14T14:41:22.111Z,29.51
2023-02-14T14:42:22.006Z,29.52
2023-02-14T14:43:21.886Z,29.48
2023-02-14T14:44:21.734Z,29.49
2023-02-14T14:45:21.657Z,29.45
2023-02-14T14:46:21.539Z,29.42
2023-02-14T14:47:21.516Z,29.38
2023-02-14T14:48:21.402Z,29.37
2023-02-14T14:49:21.228Z,29.41
2023-02-14T14:50:21.140Z,29.34
2023-02-14T14:51:21.015Z,29.34
2023-02-14T16:07:13.935Z,28.20
2023-02-14T16:08:13.865Z,28.15
2023-02-14T16:09:13.777Z,28.14
2023-02-14T16:10:13.691Z,28.12
2023-02-14T16:11:13.622Z,28.11
2023-02-14T16:12:13.560Z,28.10
2023-02-14T16:13:13.436Z,28.14
2023-02-14T16:14:13.322Z,28.10
2023-02-14T16:15:13.246Z,28.08
2023-02-14T16:16:13.214Z,28.08
2023-02-14T16:17:13.058Z,28.08
2023-02-14T16:18:12.998Z,28.07
2023-02-14T16:19:12.915Z,28.05
2023-02-14T16:20:13.402Z,28.05
2023-02-14T16:21:12.724Z,28.01
2023-02-14T16:22:12.654Z,28.03
2023-02-14T16:23:12.556Z,28.01
2023-02-14T16:24:12.464Z,28.00
2023-02-14T16:25:12.378Z,27.99
2023-02-14T16:26:12.327Z,28.01
2023-02-14T16:27:12.199Z,27.99
2023-02-14T16:28:12.140Z,27.97
2023-02-14T16:29:12.068Z,27.93
2023-02-14T16:30:12.043Z,27.92
2023-02-14T16:31:12.053Z,27.93
2023-02-14T16:32:16.661Z,27.92
2023-02-14T16:33:12.722Z,27.90
2023-02-14T16:34:11.643Z,27.92
2023-02-14T16:35:11.568Z,27.86
2023-02-14T16:36:11.528Z,27.83
2023-02-14T16:37:12.400Z,27.87
2023-02-14T16:38:11.345Z,27.89
2023-02-14T16:39:11.254Z,27.84